createdAt,value
2018-05-09T00:01:59.283Z,22.00
2018-05-09T00:04:26.859Z,21.67
2018-05-09T00:06:54.466Z,20.63
2018-05-09T00:09:21.994Z,24.50
2018-05-09T00:11:49.700Z,18.67
2018-05-09T00:14:17.359Z,21.77
2018-05-09T00:16:45.035Z,20.57
2018-05-09T00:19:12.851Z,23.80
2018-05-09T00:21:40.449Z,24.23
2018-05-09T00:24:07.992Z,21.33
2018-05-09T00:26:35.552Z,22.80
2018-05-09T00:29:03.143Z,20.90
2018-05-09T00:31:30.981Z,18.47
2018-05-09T00:33:58.744Z,28.30
2018-05-09T00:36:26.591Z,18.93
2018-05-09T00:38:54.181Z,29.20
2018-05-09T00:41:21.726Z,21.00
2018-05-09T00:43:49.319Z,30.40
2018-05-09T00:46:17.187Z,18.00
2018-05-09T00:48:45.136Z,24.50
2018-05-09T00:51:12.990Z,24.70
2018-05-09T00:53:40.623Z,25.87
2018-05-09T00:56:08.690Z,20.67
2018-05-09T00:58:36.299Z,23.57
2018-05-09T01:01:03.908Z,19.03
2018-05-09T01:03:31.665Z,22.07
2018-05-09T01:05:59.539Z,18.07
2018-05-09T01:08:27.309Z,19.43
2018-05-09T01:10:55.041Z,20.03
2018-05-09T01:13:22.676Z,17.40
2018-05-09T01:15:50.229Z,21.07
2018-05-09T01:18:17.755Z,21.37
2018-05-09T01:20:45.314Z,20.00
2018-05-09T01:23:12.976Z,24.13
2018-05-09T01:25:40.711Z,19.83
2018-05-09T01:28:09.428Z,21.03
2018-05-09T01:30:37.218Z,18.53
2018-05-09T01:33:04.749Z,17.83
2018-05-09T01:35:32.292Z,14.40
2018-05-09T01:37:59.911Z,12.53
2018-05-09T01:40:28.516Z,17.67
2018-05-09T01:42:56.159Z,22.63
2018-05-09T01:45:28.385Z,21.90
2018-05-09T01:47:55.981Z,17.47
2018-05-09T01:50:23.588Z,18.00
2018-05-09T01:52:51.143Z,22.37
2018-05-09T01:55:18.722Z,18.53
2018-05-09T01:57:46.561Z,15.80
2018-05-09T02:00:14.440Z,16.33
2018-05-09T02:02:43.060Z,23.70
2018-05-09T02:05:10.596Z,23.33
2018-05-09T02:07:38.165Z,18.20
2018-05-09T02:10:05.748Z,21.53
2018-05-09T02:12:33.294Z,24.27
2018-05-09T02:15:00.921Z,20.60
2018-05-09T02:17:28.637Z,19.50
2018-05-09T02:19:56.300Z,21.23
2018-05-09T02:22:23.832Z,19.23
2018-05-09T02:24:51.417Z,24.67
2018-05-09T02:27:19.002Z,23.40
2018-05-09T02:29:46.729Z,17.07
2018-05-09T02:32:14.624Z,19.87
2018-05-09T02:34:42.654Z,19.87
2018-05-09T02:37:10.452Z,24.97
2018-05-09T02:39:37.989Z,19.87
2018-05-09T02:42:05.575Z,22.07
2018-05-09T02:44:33.208Z,17.70
2018-05-09T02:47:00.835Z,20.63
2018-05-09T02:49:28.605Z,23.43
2018-05-09T02:51:56.248Z,23.83
2018-05-09T02:54:24.000Z,19.00
2018-05-09T02:56:51.563Z,17.43
2018-05-09T02:59:19.185Z,24.40
2018-05-09T03:01:46.748Z,29.93
2018-05-09T03:04:14.654Z,29.97
2018-05-09T03:06:42.601Z,30.50
2018-05-09T03:09:10.856Z,27.23
2018-05-09T03:11:38.713Z,26.50
2018-05-09T03:14:06.266Z,27.30
2018-05-09T03:16:33.799Z,23.60
2018-05-09T03:19:01.399Z,31.43
2018-05-09T03:21:29.078Z,29.40
2018-05-09T03:23:56.884Z,27.07
2018-05-09T03:26:25.411Z,27.40
2018-05-09T03:28:53.114Z,25.40
2018-05-09T03:31:20.650Z,20.97
2018-05-09T03:33:48.234Z,25.77
2018-05-09T03:36:15.879Z,34.47
2018-05-09T03:38:43.448Z,26.07
2018-05-09T03:41:11.160Z,24.03
2018-05-09T03:43:38.924Z,27.90
2018-05-09T03:46:06.689Z,32.70
2018-05-09T03:48:34.263Z,17.57
2018-05-09T03:51:01.811Z,30.03
2018-05-09T03:53:29.400Z,29.00
2018-05-09T03:55:56.930Z,27.43
2018-05-09T03:58:24.581Z,24.77
2018-05-09T04:00:52.240Z,25.80
2018-05-09T04:03:31.651Z,21.40
2018-05-09T04:06:11.159Z,20.47
2018-05-09T04:08:51.442Z,27.20
2018-05-09T04:11:19.088Z,21.23
2018-05-09T04:13:46.770Z,20.60
2018-05-09T04:16:14.431Z,19.60
2018-05-09T04:18:42.267Z,20.60
2018-05-09T04:21:09.921Z,27.17
2018-05-09T04:23:38.242Z,21.50
2018-05-09T04:26:05.843Z,20.40
2018-05-09T04:28:33.414Z,20.97
2018-05-09T04:31:01.141Z,22.83
2018-05-09T04:33:29.012Z,20.00
2018-05-09T04:35:56.752Z,14.93
2018-05-09T04:38:24.555Z,16.40
2018-05-09T04:40:52.147Z,21.37
2018-05-09T04:43:19.707Z,19.50
2018-05-09T04:45:47.435Z,20.90
2018-05-09T04:48:15.283Z,21.77
2018-05-09T04:50:42.948Z,19.20
2018-05-09T04:53:10.613Z,21.73
2018-05-09T04:55:38.388Z,21.37
2018-05-09T04:58:05.934Z,22.87
2018-05-09T05:00:33.509Z,22.57
2018-05-09T05:03:01.115Z,24.77
2018-05-09T05:05:28.985Z,25.77
2018-05-09T05:07:56.622Z,20.50
2018-05-09T05:10:24.307Z,19.03
2018-05-09T05:12:51.925Z,19.43
2018-05-09T05:15:19.474Z,19.20
2018-05-09T05:17:47.117Z,34.23
2018-05-09T05:20:14.674Z,22.37
2018-05-09T05:22:42.717Z,26.10
2018-05-09T05:25:10.484Z,20.47
2018-05-09T05:27:38.201Z,20.63
2018-05-09T05:30:06.326Z,17.83
2018-05-09T05:32:33.879Z,24.57
2018-05-09T05:35:01.448Z,19.03
2018-05-09T05:37:29.108Z,15.63
2018-05-09T05:39:56.755Z,20.07
2018-05-09T05:42:24.403Z,17.03
2018-05-09T05:44:52.213Z,22.57
2018-05-09T05:47:19.869Z,18.47
2018-05-09T05:49:47.457Z,22.20
2018-05-09T05:52:15.003Z,17.80
2018-05-09T05:54:42.521Z,20.13
2018-05-09T05:57:11.423Z,23.10
2018-05-09T05:59:39.109Z,19.63
2018-05-09T06:02:06.803Z,14.93
2018-05-09T06:04:34.641Z,18.50
2018-05-09T06:07:02.191Z,24.00
2018-05-09T06:09:29.707Z,20.50
2018-05-09T06:11:57.267Z,21.87
2018-05-09T06:14:24.904Z,19.27
2018-05-09T06:16:52.507Z,18.77
2018-05-09T06:19:20.149Z,19.53
2018-05-09T06:21:47.957Z,24.00
2018-05-09T06:24:15.610Z,19.03
2018-05-09T06:26:43.218Z,17.97
2018-05-09T06:29:10.844Z,21.70
2018-05-09T06:31:38.710Z,23.93
2018-05-09T06:34:07.453Z,16.33
2018-05-09T06:36:35.076Z,13.87
2018-05-09T06:39:02.881Z,18.27
2018-05-09T06:41:30.451Z,16.90
2018-05-09T06:43:58.006Z,19.83
2018-05-09T06:46:25.602Z,14.93
2018-05-09T06:48:53.231Z,20.47
2018-05-09T06:51:20.906Z,13.47
2018-05-09T06:53:48.657Z,14.93
2018-05-09T06:56:16.208Z,15.43
2018-05-09T06:58:44.580Z,11.27
2018-05-09T07:01:12.123Z,12.63
2018-05-09T07:03:39.991Z,10.97
2018-05-09T07:06:07.713Z,15.40
2018-05-09T07:08:35.461Z,13.47
2018-05-09T07:11:03.118Z,7.73
2018-05-09T07:13:33.733Z,14.30
2018-05-09T07:16:01.390Z,12.93
2018-05-09T07:18:29.026Z,11.77
2018-05-09T07:20:56.675Z,18.17
2018-05-09T07:23:24.499Z,19.50
2018-05-09T07:25:52.175Z,11.47
2018-05-09T07:28:19.952Z,15.20
2018-05-09T07:30:47.639Z,13.97
2018-05-09T07:33:15.223Z,14.50
2018-05-09T07:35:42.767Z,13.10
2018-05-09T07:38:10.351Z,10.50
2018-05-09T07:40:37.898Z,12.80
2018-05-09T07:43:05.591Z,8.17
2018-05-09T07:45:33.416Z,9.60
2018-05-09T07:48:01.065Z,11.10
2018-05-09T07:50:28.656Z,10.57
2018-05-09T07:52:56.216Z,12.13
2018-05-09T07:55:23.764Z,13.93
2018-05-09T07:57:51.627Z,8.30
2018-05-09T08:00:19.325Z,9.90
2018-05-09T08:02:46.985Z,12.07
2018-05-09T08:05:14.655Z,9.20
2018-05-09T08:07:53.391Z,13.77
2018-05-09T08:10:20.934Z,8.53
2018-05-09T08:12:48.500Z,8.77
2018-05-09T08:15:16.078Z,10.37
2018-05-09T08:17:43.929Z,11.13
2018-05-09T08:20:11.653Z,12.20
2018-05-09T08:22:39.275Z,10.90
2018-05-09T08:25:06.862Z,9.67
2018-05-09T08:27:34.426Z,10.33
2018-05-09T08:30:02.773Z,11.00
2018-05-09T08:32:30.501Z,11.27
2018-05-09T08:34:58.374Z,14.60
2018-05-09T08:37:25.937Z,14.23
2018-05-09T08:39:53.476Z,9.80
2018-05-09T08:42:21.044Z,12.63
2018-05-09T08:44:48.583Z,12.33
2018-05-09T08:47:16.171Z,9.60
2018-05-09T08:49:43.747Z,8.17
2018-05-09T08:52:11.412Z,8.50
2018-05-09T08:54:39.091Z,8.40
2018-05-09T08:57:06.727Z,7.77
2018-05-09T08:59:34.215Z,10.17
2018-05-09T09:02:01.828Z,9.13
2018-05-09T09:04:29.447Z,14.23
2018-05-09T09:06:57.051Z,11.83
2018-05-09T09:18:08.475Z,10.63
2018-05-09T09:20:36.378Z,10.00
2018-05-09T09:23:03.919Z,6.00
2018-05-09T09:34:12.121Z,13.43
2018-05-09T09:36:39.975Z,8.37
2018-05-09T09:39:07.591Z,8.70
2018-05-09T09:41:35.765Z,12.43
2018-05-09T09:52:40.964Z,18.70
2018-05-09T09:55:08.519Z,8.70
2018-05-09T09:57:36.195Z,5.57
2018-05-09T10:08:51.344Z,4.83
2018-05-09T10:11:18.964Z,11.37
2018-05-09T10:13:46.487Z,8.67
2018-05-09T10:26:47.643Z,8.90
2018-05-09T10:29:15.195Z,8.73
2018-05-09T10:31:42.821Z,9.57
2018-05-09T10:42:27.571Z,13.00
2018-05-09T10:44:55.275Z,4.17
2018-05-09T10:47:22.912Z,3.03
2018-05-09T10:49:50.719Z,8.97
2018-05-09T11:01:16.913Z,10.93
2018-05-09T11:03:44.684Z,7.30
2018-05-09T11:06:12.393Z,7.47
2018-05-09T11:17:49.999Z,5.07
2018-05-09T11:20:17.687Z,6.40
2018-05-09T11:22:45.353Z,9.47
2018-05-09T11:34:11.984Z,10.03
2018-05-09T11:36:39.622Z,7.40
2018-05-09T11:39:07.230Z,4.60
2018-05-09T11:41:36.256Z,5.33
2018-05-09T11:52:56.156Z,6.00
2018-05-09T11:55:23.864Z,5.67
2018-05-09T11:57:51.497Z,6.27
2018-05-09T12:09:17.324Z,10.93
2018-05-09T12:11:44.987Z,5.53
2018-05-09T12:14:12.662Z,9.00
2018-05-09T12:25:09.599Z,9.13
2018-05-09T12:27:37.359Z,5.77
2018-05-09T12:30:05.023Z,8.70
2018-05-09T12:32:32.749Z,8.80
2018-05-09T12:37:47.045Z,4.20
2018-05-09T12:43:07.693Z,7.63
2018-05-09T12:45:35.245Z,4.40
2018-05-09T12:48:02.795Z,8.50
2018-05-09T12:55:59.561Z,9.27
2018-05-09T13:01:06.967Z,7.67
2018-05-09T13:03:34.655Z,9.73
2018-05-09T13:06:02.460Z,10.30
2018-05-09T13:16:50.139Z,7.93
2018-05-09T13:19:17.977Z,7.30
2018-05-09T13:21:45.719Z,14.87
2018-05-09T13:24:13.400Z,18.10
2018-05-09T13:35:06.500Z,7.77
2018-05-09T13:37:39.465Z,6.87
2018-05-09T13:40:07.229Z,6.77
2018-05-09T13:51:29.325Z,13.00
2018-05-09T13:53:56.996Z,13.77
2018-05-09T13:56:24.644Z,12.87
2018-05-09T13:58:52.410Z,9.93
2018-05-09T14:10:08.936Z,5.83
2018-05-09T14:12:36.553Z,9.93
2018-05-09T14:15:04.156Z,8.37
2018-05-09T14:26:39.760Z,6.23
2018-05-09T14:29:07.474Z,11.80
2018-05-09T14:31:35.054Z,8.50
2018-05-09T14:37:08.774Z,8.07
2018-05-09T14:39:37.051Z,10.77
2018-05-09T14:42:04.565Z,10.37
2018-05-09T14:44:32.058Z,11.07
2018-05-09T14:46:59.583Z,13.23
2018-05-09T14:49:27.070Z,19.33
2018-05-09T14:51:55.637Z,15.57
2018-05-09T14:54:23.985Z,9.70
2018-05-09T14:56:52.117Z,13.33
2018-05-09T14:59:21.371Z,10.87
2018-05-09T15:01:50.074Z,15.63
2018-05-09T15:04:17.545Z,17.07
2018-05-09T15:06:45.060Z,13.73
2018-05-09T15:09:12.614Z,15.33
2018-05-09T15:11:41.012Z,6.40
2018-05-09T15:14:09.232Z,13.43
2018-05-09T15:16:36.729Z,7.67
2018-05-09T15:19:04.238Z,8.47
2018-05-09T15:21:31.721Z,10.10
2018-05-09T15:23:59.208Z,9.77
2018-05-09T15:26:27.936Z,14.13
2018-05-09T15:28:57.092Z,10.57
2018-05-09T15:31:24.601Z,9.20
2018-05-09T15:33:52.923Z,6.77
2018-05-09T15:36:20.434Z,14.53
2018-05-09T15:38:48.031Z,11.00
2018-05-09T15:41:15.444Z,12.03
2018-05-09T15:43:43.941Z,9.93
2018-05-09T15:46:15.963Z,12.20
2018-05-09T15:48:47.755Z,9.10
2018-05-09T15:51:16.938Z,12.40
2018-05-09T15:53:44.434Z,13.00
2018-05-09T15:56:11.930Z,17.70
2018-05-09T15:58:39.426Z,10.67
2018-05-09T16:01:11.339Z,11.13
2018-05-09T16:03:39.840Z,14.63
2018-05-09T16:06:08.791Z,14.47
2018-05-09T16:08:37.153Z,11.70
2018-05-09T16:11:04.640Z,9.90
2018-05-09T16:13:32.157Z,8.23
2018-05-09T16:15:59.662Z,12.17
2018-05-09T16:18:33.025Z,11.93
2018-05-09T16:21:00.806Z,9.90
2018-05-09T16:23:29.999Z,7.47
2018-05-09T16:26:00.045Z,8.97
2018-05-09T16:28:28.098Z,9.90
2018-05-09T16:30:55.625Z,9.70
2018-05-09T16:33:23.137Z,6.30
2018-05-09T16:35:53.131Z,7.50
2018-05-09T16:38:20.675Z,6.73
2018-05-09T16:40:48.809Z,9.27
2018-05-09T16:43:17.206Z,9.17
2018-05-09T16:45:44.749Z,4.30
2018-05-09T16:48:12.292Z,7.80
2018-05-09T16:50:39.782Z,9.53
2018-05-09T16:53:08.308Z,10.37
2018-05-09T16:55:36.984Z,6.87
2018-05-09T16:58:04.626Z,8.87
2018-05-09T17:00:33.089Z,9.43
2018-05-09T17:03:00.590Z,9.87
2018-05-09T17:05:28.162Z,5.83
2018-05-09T17:07:55.594Z,9.37
2018-05-09T17:10:24.592Z,6.43
2018-05-09T17:12:53.054Z,8.57
2018-05-09T17:15:20.584Z,9.50
2018-05-09T17:17:48.971Z,7.10
2018-05-09T17:20:16.514Z,3.93
2018-05-09T17:22:43.962Z,10.43
2018-05-09T17:25:11.501Z,7.57
2018-05-09T17:27:40.639Z,4.13
2018-05-09T17:30:08.927Z,5.33
2018-05-09T17:32:36.554Z,6.17
2018-05-09T17:35:05.071Z,6.27
2018-05-09T17:37:32.593Z,10.30
2018-05-09T17:40:00.098Z,8.00
2018-05-09T17:42:27.587Z,7.87
2018-05-09T17:44:59.535Z,6.73
2018-05-09T17:47:31.454Z,7.53
2018-05-09T17:50:03.124Z,11.30
2018-05-09T17:52:35.171Z,8.97
2018-05-09T17:55:02.680Z,3.37
2018-05-09T17:57:30.192Z,8.10
2018-05-09T17:59:57.665Z,11.07
2018-05-09T18:02:25.210Z,8.57
2018-05-09T18:04:52.977Z,6.87
2018-05-09T18:07:21.242Z,7.57
2018-05-09T18:09:48.718Z,4.57
2018-05-09T18:12:16.217Z,3.83
2018-05-09T18:14:43.721Z,8.43
2018-05-09T18:17:11.214Z,4.90
2018-05-09T18:19:39.815Z,6.13
2018-05-09T18:22:08.295Z,6.53
2018-05-09T18:24:37.030Z,6.77
2018-05-09T18:27:04.665Z,6.27
2018-05-09T18:29:32.139Z,3.00
2018-05-09T18:31:59.658Z,8.00
2018-05-09T18:34:27.147Z,7.87
2018-05-09T18:36:57.198Z,6.57
2018-05-09T18:39:24.737Z,4.97
2018-05-09T18:41:53.141Z,7.03
2018-05-09T18:44:20.695Z,8.17
2018-05-09T18:46:48.218Z,6.03
2018-05-09T18:49:15.730Z,8.57
2018-05-09T18:51:43.239Z,10.27
2018-05-09T18:54:15.491Z,7.10
2018-05-09T18:56:53.277Z,17.67
2018-05-09T19:01:59.126Z,10.53
2018-05-09T19:04:26.679Z,9.37
2018-05-09T19:06:54.249Z,11.50
2018-05-09T19:09:21.778Z,12.40
2018-05-09T19:19:34.320Z,14.43
2018-05-09T19:22:01.814Z,16.47
2018-05-09T19:24:29.303Z,19.17
2018-05-09T19:26:56.829Z,19.60
2018-05-09T19:29:25.363Z,13.60
2018-05-09T19:32:00.919Z,15.13
2018-05-09T19:34:31.497Z,17.37
2018-05-09T19:36:59.001Z,16.13
2018-05-09T19:39:27.672Z,16.07
2018-05-09T19:41:55.155Z,14.43
2018-05-09T19:44:22.691Z,15.30
2018-05-09T19:52:00.562Z,20.60
2018-05-09T19:54:31.802Z,18.20
2018-05-09T19:56:59.278Z,16.77
2018-05-09T19:59:26.790Z,15.37
2018-05-09T20:01:54.354Z,14.30
2018-05-09T20:04:23.635Z,17.67
2018-05-09T20:06:52.916Z,12.87
2018-05-09T20:09:21.219Z,11.60
2018-05-09T20:11:48.799Z,13.03
2018-05-09T20:14:16.292Z,9.93
2018-05-09T20:16:43.814Z,12.70
2018-05-09T20:19:11.327Z,10.17
2018-05-09T20:29:30.071Z,16.63
2018-05-09T20:32:09.407Z,17.47
2018-05-09T20:34:36.928Z,15.23
2018-05-09T20:37:04.448Z,14.00
2018-05-09T20:39:32.806Z,11.03
2018-05-09T20:42:04.483Z,17.50
2018-05-09T20:44:33.164Z,16.30
2018-05-09T20:47:00.706Z,13.63
2018-05-09T20:49:28.225Z,11.20
2018-05-09T20:51:55.710Z,16.83
2018-05-09T20:54:23.231Z,17.20
2018-05-09T21:01:59.258Z,16.17
2018-05-09T21:04:26.774Z,19.47
2018-05-09T21:06:54.286Z,15.67
2018-05-09T21:09:21.830Z,15.47
2018-05-09T21:17:09.288Z,14.73
2018-05-09T21:19:36.824Z,22.97
2018-05-09T21:22:04.310Z,14.60
2018-05-09T21:24:31.815Z,11.53
2018-05-09T21:26:59.366Z,15.77
2018-05-09T21:29:27.857Z,17.90
2018-05-09T21:31:56.326Z,24.90
2018-05-09T21:34:25.372Z,24.23
2018-05-09T21:36:57.054Z,24.50
2018-05-09T21:39:24.556Z,29.17
2018-05-09T21:41:52.034Z,21.63
2018-05-09T21:44:19.541Z,19.77
2018-05-09T21:52:03.399Z,22.90
2018-05-09T21:54:35.336Z,28.23
2018-05-09T21:57:02.831Z,30.57
2018-05-09T21:59:30.362Z,34.67
2018-05-09T22:01:57.870Z,32.00
2018-05-09T22:04:28.143Z,37.30
2018-05-09T22:06:57.103Z,39.33
2018-05-09T22:09:27.452Z,34.47
2018-05-09T22:11:56.174Z,30.43
2018-05-09T22:14:23.663Z,37.10
2018-05-09T22:16:51.186Z,29.10
2018-05-09T22:19:18.689Z,40.13
2018-05-09T22:21:47.518Z,31.80
2018-05-09T22:24:15.412Z,33.87
2018-05-09T22:26:45.365Z,37.50
2018-05-09T22:29:12.878Z,35.43
2018-05-09T22:31:40.384Z,40.20
2018-05-09T22:34:07.900Z,33.27
2018-05-09T22:36:36.386Z,35.70
2018-05-09T22:39:04.787Z,32.37
2018-05-09T22:41:33.235Z,43.03
2018-05-09T22:44:00.758Z,45.37
2018-05-09T22:46:29.402Z,40.07
2018-05-09T22:48:56.910Z,30.83
2018-05-09T22:51:24.379Z,39.63
2018-05-09T22:53:51.891Z,51.27
2018-05-09T22:56:20.404Z,37.97
2018-05-09T22:58:49.139Z,33.70
2018-05-09T23:01:16.703Z,38.07
2018-05-09T23:03:48.258Z,36.00
2018-05-09T23:06:15.750Z,34.23
2018-05-09T23:08:43.242Z,30.23
2018-05-09T23:11:10.725Z,29.03
2018-05-09T23:13:40.230Z,22.47
2018-05-09T23:16:12.970Z,39.77
2018-05-09T23:18:43.221Z,32.73
2018-05-09T23:21:15.388Z,33.73
2018-05-09T23:23:42.958Z,28.47
2018-05-09T23:26:10.401Z,34.07
2018-05-09T23:28:37.973Z,23.40
2018-05-09T23:31:05.461Z,29.03
2018-05-09T23:33:36.303Z,27.73
2018-05-09T23:36:04.882Z,29.27
2018-05-09T23:38:35.354Z,29.57
2018-05-09T23:41:02.860Z,30.03
2018-05-09T23:43:30.366Z,37.23
2018-05-09T23:45:57.884Z,37.33
2018-05-09T23:48:25.408Z,27.53
2018-05-09T23:50:52.901Z,40.40
2018-05-09T23:53:21.326Z,25.60
2018-05-09T23:55:48.884Z,31.53
2018-05-09T23:58:16.356Z,34.03
